createdAt,value
2018-11-23T00:00:13.331Z,5.32
2018-11-23T00:00:39.472Z,5.29
2018-11-23T00:01:05.606Z,5.35
2018-11-23T00:01:31.738Z,5.3
2018-11-23T00:01:57.944Z,5.29
2018-11-23T00:02:24.096Z,5.36
2018-11-23T00:02:50.232Z,5.32
2018-11-23T00:03:16.390Z,5.32
2018-11-23T00:03:42.525Z,5.38
2018-11-23T00:04:08.659Z,5.38
2018-11-23T00:04:34.828Z,5.43
2018-11-23T00:05:01.046Z,5.32
2018-11-23T00:05:27.237Z,5.36
2018-11-23T00:05:53.396Z,5.35
2018-11-23T00:06:19.616Z,5.33
2018-11-23T00:06:45.713Z,5.3
2018-11-23T00:07:11.819Z,5.26
2018-11-23T00:07:37.987Z,5.23
2018-11-23T00:08:04.121Z,5.26
2018-11-23T00:08:30.257Z,5.21
2018-11-23T00:08:56.417Z,5.26
2018-11-23T00:09:22.606Z,5.32
2018-11-23T00:09:48.756Z,5.3
2018-11-23T00:10:14.927Z,5.33
2018-11-23T00:10:41.077Z,5.33
2018-11-23T00:11:07.206Z,5.29
2018-11-23T00:11:33.342Z,5.36
2018-11-23T00:11:59.478Z,5.36
2018-11-23T00:12:25.613Z,5.46
2018-11-23T00:12:51.747Z,5.39
2018-11-23T00:13:17.948Z,5.38
2018-11-23T00:13:44.105Z,5.35
2018-11-23T00:14:10.272Z,5.43
2018-11-23T00:14:36.434Z,5.47
2018-11-23T00:15:02.605Z,5.47
2018-11-23T00:15:28.766Z,5.51
2018-11-23T00:15:54.932Z,5.5
2018-11-23T00:16:21.085Z,5.54
2018-11-23T00:16:47.249Z,5.54
2018-11-23T00:17:13.410Z,5.5
2018-11-23T00:17:39.577Z,5.41
2018-11-23T00:18:05.736Z,5.38
2018-11-23T00:18:31.907Z,5.43
2018-11-23T00:18:58.032Z,5.38
2018-11-23T00:19:24.158Z,5.36
2018-11-23T00:19:50.265Z,5.38
2018-11-23T00:20:16.431Z,5.41
2018-11-23T00:20:42.627Z,5.38
2018-11-23T00:21:08.779Z,5.29
2018-11-23T00:21:34.951Z,5.28
2018-11-23T00:22:01.145Z,5.3
2018-11-23T00:22:27.268Z,5.23
2018-11-23T00:22:53.427Z,5.26
2018-11-23T00:23:19.562Z,5.21
2018-11-23T00:23:45.701Z,5.12
2018-11-23T00:24:11.834Z,5.15
2018-11-23T00:24:37.966Z,5.1
2018-11-23T00:25:04.082Z,5.15
2018-11-23T00:25:30.214Z,5.21
2018-11-23T00:25:56.339Z,5.15
2018-11-23T00:26:22.503Z,5.15
2018-11-23T00:26:48.634Z,5.21
2018-11-23T00:27:14.770Z,5.18
2018-11-23T00:27:40.908Z,5.21
2018-11-23T00:28:07.101Z,5.21
2018-11-23T00:28:33.241Z,5.21
2018-11-23T00:28:59.367Z,5.14
2018-11-23T00:29:25.504Z,5.21
2018-11-23T00:29:51.726Z,5.17
2018-11-23T00:30:17.885Z,5.21
2018-11-23T00:30:44.039Z,5.17
2018-11-23T00:31:10.209Z,5.25
2018-11-23T00:31:36.315Z,5.29
2018-11-23T00:32:02.485Z,5.2
2018-11-23T00:32:28.586Z,5.21
2018-11-23T00:32:54.780Z,5.21
2018-11-23T00:33:20.942Z,5.23
2018-11-23T00:33:47.104Z,5.15
2018-11-23T00:34:13.215Z,5.2
2018-11-23T00:34:39.347Z,5.14
2018-11-23T00:35:05.476Z,5.14
2018-11-23T00:35:31.670Z,5.17
2018-11-23T00:35:57.832Z,5.25
2018-11-23T00:36:23.989Z,5.2
2018-11-23T00:36:50.117Z,5.23
2018-11-23T00:37:16.280Z,5.28
2018-11-23T00:37:42.431Z,5.32
2018-11-23T00:38:08.599Z,5.28
2018-11-23T00:38:34.764Z,5.32
2018-11-23T00:39:00.895Z,5.33
2018-11-23T00:39:26.994Z,5.33
2018-11-23T00:39:53.129Z,5.35
2018-11-23T00:40:19.233Z,5.33
2018-11-23T00:40:45.454Z,5.38
2018-11-23T00:41:11.595Z,5.46
2018-11-23T00:41:37.722Z,5.38
2018-11-23T00:42:03.853Z,5.39
2018-11-23T00:42:30.083Z,5.32
2018-11-23T00:42:56.220Z,5.38
2018-11-23T00:43:22.359Z,5.46
2018-11-23T00:43:48.485Z,5.46
2018-11-23T00:44:14.713Z,5.38
2018-11-23T00:44:40.884Z,5.39
2018-11-23T00:45:07.076Z,5.47
2018-11-23T00:45:33.235Z,5.5
2018-11-23T00:45:59.406Z,5.51
2018-11-23T00:46:25.533Z,5.54
2018-11-23T00:46:51.724Z,5.54
2018-11-23T00:47:17.833Z,5.53
2018-11-23T00:47:44.020Z,5.57
2018-11-23T00:48:10.192Z,5.59
2018-11-23T00:48:36.342Z,5.61
2018-11-23T00:49:02.482Z,5.61
2018-11-23T00:49:28.665Z,5.64
2018-11-23T00:49:54.831Z,5.66
2018-11-23T00:50:20.995Z,5.66
2018-11-23T00:50:47.150Z,5.61
2018-11-23T00:51:13.309Z,5.66
2018-11-23T00:51:39.465Z,5.66
2018-11-23T00:52:05.571Z,5.62
2018-11-23T00:52:31.678Z,5.71
2018-11-23T00:52:57.781Z,5.64
2018-11-23T00:53:23.915Z,5.68
2018-11-23T00:53:50.053Z,5.64
2018-11-23T00:54:16.185Z,5.66
2018-11-23T00:54:42.331Z,5.65
2018-11-23T00:55:08.466Z,5.62
2018-11-23T00:55:34.655Z,5.68
2018-11-23T00:56:00.761Z,5.71
2018-11-23T00:56:26.895Z,5.73
2018-11-23T00:56:53.005Z,5.73
2018-11-23T00:57:19.131Z,5.68
2018-11-23T00:57:45.315Z,5.76
2018-11-23T00:58:11.503Z,5.83
2018-11-23T00:58:37.609Z,5.82
2018-11-23T00:59:03.740Z,5.82
2018-11-23T00:59:29.900Z,5.76
2018-11-23T00:59:56.920Z,5.69
2018-11-23T01:00:23.024Z,5.69
2018-11-23T01:00:49.153Z,5.79
2018-11-23T01:01:15.366Z,5.71
2018-11-23T01:01:41.574Z,5.71
2018-11-23T01:02:07.706Z,5.68
2018-11-23T01:02:33.904Z,5.68
2018-11-23T01:03:00.049Z,5.66
2018-11-23T01:03:26.182Z,5.59
2018-11-23T01:03:52.315Z,5.64
2018-11-23T01:04:18.513Z,5.73
2018-11-23T01:04:44.908Z,5.65
2018-11-23T01:05:11.015Z,5.61
2018-11-23T01:05:37.205Z,5.57
2018-11-23T01:06:03.371Z,5.59
2018-11-23T01:06:29.570Z,5.54
2018-11-23T01:06:55.737Z,5.54
2018-11-23T01:07:21.844Z,5.57
2018-11-23T01:07:47.981Z,5.51
2018-11-23T01:08:14.172Z,5.44
2018-11-23T01:08:40.344Z,5.33
2018-11-23T01:09:06.486Z,5.46
2018-11-23T01:09:32.679Z,5.43
2018-11-23T01:09:58.814Z,5.41
2018-11-23T01:10:24.947Z,5.38
2018-11-23T01:10:51.107Z,5.3
2018-11-23T01:11:17.249Z,5.3
2018-11-23T01:11:43.374Z,5.3
2018-11-23T01:12:09.540Z,5.3
2018-11-23T01:12:35.696Z,5.23
2018-11-23T01:13:01.894Z,5.25
2018-11-23T01:13:28.058Z,5.23
2018-11-23T01:13:54.246Z,5.28
2018-11-23T01:14:20.476Z,5.26
2018-11-23T01:14:46.602Z,5.26
2018-11-23T01:15:12.710Z,5.3
2018-11-23T01:15:38.821Z,5.38
2018-11-23T01:16:04.956Z,5.32
2018-11-23T01:16:31.122Z,5.32
2018-11-23T01:16:57.262Z,5.38
2018-11-23T01:17:23.417Z,5.33
2018-11-23T01:17:49.572Z,5.32
2018-11-23T01:18:15.735Z,5.33
2018-11-23T01:18:41.927Z,5.43
2018-11-23T01:19:08.063Z,5.38
2018-11-23T01:19:34.219Z,5.33
2018-11-23T01:20:00.383Z,5.28
2018-11-23T01:20:26.587Z,5.21
2018-11-23T01:20:52.705Z,5.17
2018-11-23T01:21:18.845Z,5.2
2018-11-23T01:21:44.980Z,5.14
2018-11-23T01:22:11.146Z,5.11
2018-11-23T01:22:37.306Z,5.2
2018-11-23T01:23:03.438Z,5.17
2018-11-23T01:23:29.604Z,5.14
2018-11-23T01:23:55.706Z,5.1
2018-11-23T01:24:21.810Z,5.14
2018-11-23T01:24:47.948Z,5.05
2018-11-23T01:25:14.146Z,5.18
2018-11-23T01:25:40.255Z,5.15
2018-11-23T01:26:06.441Z,5.12
2018-11-23T01:26:32.673Z,5.11
2018-11-23T01:26:58.853Z,5.08
2018-11-23T01:27:24.956Z,5.28
2018-11-23T01:27:51.094Z,5.14
2018-11-23T01:28:17.256Z,5.05
2018-11-23T01:28:43.422Z,5.11
2018-11-23T01:29:09.554Z,5.1
2018-11-23T01:29:35.662Z,5.11
2018-11-23T01:30:01.799Z,5.07
2018-11-23T01:30:28.028Z,5.04
2018-11-23T01:30:54.188Z,5.07
2018-11-23T01:31:20.374Z,4.99
2018-11-23T01:31:46.547Z,4.99
2018-11-23T01:32:12.768Z,5.08
2018-11-23T01:32:38.934Z,4.9
2018-11-23T01:33:05.073Z,4.89
2018-11-23T01:33:31.315Z,5.02
2018-11-23T01:33:57.454Z,4.9
2018-11-23T01:34:23.593Z,4.9
2018-11-23T01:34:49.720Z,4.87
2018-11-23T01:35:15.892Z,4.92
2018-11-23T01:35:42.093Z,4.93
2018-11-23T01:36:08.328Z,4.97
2018-11-23T01:36:34.459Z,4.93
2018-11-23T01:37:00.596Z,4.93
2018-11-23T01:37:26.701Z,4.87
2018-11-23T01:37:52.856Z,4.92
2018-11-23T01:38:19.023Z,4.78
2018-11-23T01:38:45.174Z,4.77
2018-11-23T01:39:11.311Z,4.77
2018-11-23T01:39:37.479Z,4.75
2018-11-23T01:40:03.608Z,4.7
2018-11-23T01:40:29.802Z,4.7
2018-11-23T01:40:55.910Z,4.68
2018-11-23T01:41:22.041Z,4.68
2018-11-23T01:41:48.197Z,4.71
2018-11-23T01:42:14.419Z,4.68
2018-11-23T01:42:40.554Z,4.71
2018-11-23T01:43:06.678Z,4.73
2018-11-23T01:43:32.872Z,4.66
2018-11-23T01:43:58.977Z,4.71
2018-11-23T01:44:25.114Z,4.67
2018-11-23T01:44:51.271Z,4.67
2018-11-23T01:45:17.439Z,4.7
2018-11-23T01:45:43.629Z,4.68
2018-11-23T01:46:09.741Z,4.59
2018-11-23T01:46:35.904Z,4.7
2018-11-23T01:47:02.026Z,4.7
2018-11-23T01:47:28.138Z,4.68
2018-11-23T01:47:54.265Z,4.63
2018-11-23T01:48:20.397Z,4.6
2018-11-23T01:48:46.506Z,4.63
2018-11-23T01:49:12.645Z,4.53
2018-11-23T01:49:38.819Z,4.6
2018-11-23T01:50:04.962Z,4.59
2018-11-23T01:50:31.091Z,4.59
2018-11-23T01:50:57.193Z,4.62
2018-11-23T01:51:23.383Z,4.49
2018-11-23T01:51:49.521Z,4.5
2018-11-23T01:52:15.686Z,4.53
2018-11-23T01:52:41.789Z,4.55
2018-11-23T01:53:08.010Z,4.58
2018-11-23T01:53:34.144Z,4.6
2018-11-23T01:54:00.301Z,4.59
2018-11-23T01:54:26.409Z,4.63
2018-11-23T01:54:52.569Z,4.59
2018-11-23T01:55:18.671Z,4.56
2018-11-23T01:55:44.806Z,4.53
2018-11-23T01:56:10.907Z,4.55
2018-11-23T01:56:37.043Z,4.49
2018-11-23T01:57:03.177Z,4.45
2018-11-23T01:57:29.305Z,4.56
2018-11-23T01:57:55.446Z,4.55
2018-11-23T01:58:21.640Z,4.55
2018-11-23T01:58:47.803Z,4.56
2018-11-23T01:59:14.017Z,4.67
2018-11-23T01:59:40.176Z,4.63
2018-11-23T02:00:06.276Z,4.66
2018-11-23T02:00:32.443Z,4.67
2018-11-23T02:00:58.518Z,4.68
2018-11-23T02:01:24.687Z,4.66
2018-11-23T02:01:50.809Z,4.58
2018-11-23T02:02:16.981Z,4.62
2018-11-23T02:02:43.186Z,4.59
2018-11-23T02:03:09.371Z,4.58
2018-11-23T02:03:35.499Z,4.63
2018-11-23T02:04:01.642Z,4.59
2018-11-23T02:04:27.803Z,4.58
2018-11-23T02:04:53.946Z,4.58
2018-11-23T02:05:20.089Z,4.71
2018-11-23T02:05:46.306Z,4.68
2018-11-23T02:06:12.531Z,4.63
2018-11-23T02:06:38.662Z,4.6
2018-11-23T02:07:04.789Z,4.62
2018-11-23T02:07:30.925Z,4.68
2018-11-23T02:07:57.100Z,4.62
2018-11-23T02:08:23.294Z,4.59
2018-11-23T02:08:49.423Z,4.59
2018-11-23T02:09:15.520Z,4.56
2018-11-23T02:09:41.629Z,4.62
2018-11-23T02:10:07.793Z,4.66
2018-11-23T02:10:33.955Z,4.62
2018-11-23T02:11:00.124Z,4.58
2018-11-23T02:11:26.279Z,4.56
2018-11-23T02:11:52.448Z,4.53
2018-11-23T02:12:18.612Z,4.6
2018-11-23T02:12:44.746Z,4.58
2018-11-23T02:13:10.854Z,4.56
2018-11-23T02:13:37.018Z,4.52
2018-11-23T02:14:03.175Z,4.59
2018-11-23T02:14:29.306Z,4.6
2018-11-23T02:14:55.499Z,4.6
2018-11-23T02:15:21.665Z,4.58
2018-11-23T02:15:47.773Z,4.55
2018-11-23T02:16:13.913Z,4.63
2018-11-23T02:16:40.070Z,4.55
2018-11-23T02:17:06.232Z,4.55
2018-11-23T02:17:32.452Z,4.58
2018-11-23T02:17:58.611Z,4.5
2018-11-23T02:18:24.719Z,4.58
2018-11-23T02:18:50.853Z,4.55
2018-11-23T02:19:17.044Z,4.56
2018-11-23T02:19:43.253Z,4.55
2018-11-23T02:20:09.398Z,4.59
2018-11-23T02:20:35.564Z,4.5
2018-11-23T02:21:01.725Z,4.52
2018-11-23T02:21:27.917Z,4.5
2018-11-23T02:21:54.110Z,4.48
2018-11-23T02:22:20.278Z,4.53
2018-11-23T02:22:46.388Z,4.49
2018-11-23T02:23:12.525Z,4.44
2018-11-23T02:23:38.686Z,4.5
2018-11-23T02:24:04.885Z,4.48
2018-11-23T02:24:31.013Z,4.52
2018-11-23T02:24:57.124Z,4.52
2018-11-23T02:25:23.319Z,4.49
2018-11-23T02:25:49.452Z,4.58
2018-11-23T02:26:15.558Z,4.56
2018-11-23T02:26:41.750Z,4.66
2018-11-23T02:27:07.890Z,4.68
2018-11-23T02:27:34.050Z,4.7
2018-11-23T02:28:00.193Z,4.73
2018-11-23T02:28:26.347Z,4.7
2018-11-23T02:28:52.481Z,4.68
2018-11-23T02:29:18.641Z,4.66
2018-11-23T02:29:44.976Z,4.74
2018-11-23T02:30:10.966Z,4.7
2018-11-23T02:30:37.184Z,4.68
2018-11-23T02:31:03.339Z,4.71
2018-11-23T02:31:29.529Z,4.71
2018-11-23T02:31:55.706Z,4.67
2018-11-23T02:32:21.856Z,4.58
2018-11-23T02:32:48.057Z,4.56
2018-11-23T02:33:14.250Z,4.58
2018-11-23T02:33:40.376Z,4.58
2018-11-23T02:34:06.530Z,4.53
2018-11-23T02:34:32.694Z,4.5
2018-11-23T02:34:58.858Z,4.5
2018-11-23T02:35:25.031Z,4.53
2018-11-23T02:35:51.185Z,4.49
2018-11-23T02:36:17.374Z,4.44
2018-11-23T02:36:43.535Z,4.42
2018-11-23T02:37:09.784Z,4.44
2018-11-23T02:37:35.914Z,4.34
2018-11-23T02:38:02.071Z,4.45
2018-11-23T02:38:28.232Z,4.35
2018-11-23T02:38:54.359Z,4.45
2018-11-23T02:39:20.494Z,4.35
2018-11-23T02:39:46.689Z,4.37
2018-11-23T02:40:12.853Z,4.44
2018-11-23T02:40:39.039Z,4.45
2018-11-23T02:41:05.264Z,4.37
2018-11-23T02:41:31.376Z,4.32
2018-11-23T02:41:57.505Z,4.4
2018-11-23T02:42:23.606Z,4.35
2018-11-23T02:42:49.748Z,4.31
2018-11-23T02:43:15.857Z,4.31
2018-11-23T02:43:42.023Z,4.31
2018-11-23T02:44:08.211Z,4.32
2018-11-23T02:44:34.341Z,4.32
2018-11-23T02:45:00.511Z,4.41
2018-11-23T02:45:26.672Z,4.31
2018-11-23T02:45:52.806Z,4.32
2018-11-23T02:46:18.938Z,4.31
2018-11-23T02:46:45.093Z,4.37
2018-11-23T02:47:11.202Z,4.34
2018-11-23T02:47:37.345Z,4.32
2018-11-23T02:48:03.452Z,4.37
2018-11-23T02:48:29.557Z,4.42
2018-11-23T02:48:55.722Z,4.41
2018-11-23T02:49:21.919Z,4.35
2018-11-23T02:49:48.057Z,4.35
2018-11-23T02:50:14.220Z,4.44
2018-11-23T02:50:40.379Z,4.41
2018-11-23T02:51:06.574Z,4.44
2018-11-23T02:51:32.765Z,4.48
2018-11-23T02:51:58.931Z,4.38
2018-11-23T02:52:25.094Z,4.31
2018-11-23T02:52:51.231Z,4.38
2018-11-23T02:53:17.440Z,4.38
2018-11-23T02:53:43.543Z,4.52
2018-11-23T02:54:09.645Z,4.4
2018-11-23T02:54:35.774Z,4.5
2018-11-23T02:55:01.968Z,4.44
2018-11-23T02:55:28.130Z,4.38
2018-11-23T02:55:54.300Z,4.41
2018-11-23T02:56:20.407Z,4.38
2018-11-23T02:56:46.565Z,4.41
2018-11-23T02:57:12.700Z,4.37
2018-11-23T02:57:38.843Z,4.38
2018-11-23T02:58:04.997Z,4.38
2018-11-23T02:58:31.164Z,4.4
2018-11-23T02:58:57.300Z,4.38
2018-11-23T02:59:23.992Z,4.31
2018-11-23T02:59:49.614Z,4.42
2018-11-23T03:00:15.797Z,4.42
2018-11-23T03:00:41.954Z,4.32
2018-11-23T03:01:08.144Z,4.35
2018-11-23T03:01:34.308Z,4.38
2018-11-23T03:02:00.464Z,4.28
2018-11-23T03:02:26.616Z,4.22
2018-11-23T03:02:52.757Z,4.34
2018-11-23T03:03:18.887Z,4.22
2018-11-23T03:03:45.056Z,4.35
2018-11-23T03:04:11.193Z,4.24
2018-11-23T03:04:37.353Z,4.32
2018-11-23T03:05:03.521Z,4.26
2018-11-23T03:05:29.619Z,4.2
2018-11-23T03:05:55.753Z,4.2
2018-11-23T03:06:21.916Z,4.31
2018-11-23T03:06:48.055Z,4.32
2018-11-23T03:07:14.181Z,4.3
2018-11-23T03:07:40.347Z,4.22
2018-11-23T03:08:06.535Z,4.24
2018-11-23T03:08:32.673Z,4.23
2018-11-23T03:08:58.807Z,4.2
2018-11-23T03:09:24.998Z,4.31
2018-11-23T03:09:51.138Z,4.22
2018-11-23T03:10:17.312Z,4.26
2018-11-23T03:10:43.442Z,4.31
2018-11-23T03:11:09.603Z,4.28
2018-11-23T03:11:35.728Z,4.34
2018-11-23T03:12:01.894Z,4.2
2018-11-23T03:12:28.048Z,4.31
2018-11-23T03:12:54.154Z,4.28
2018-11-23T03:13:20.339Z,4.34
2018-11-23T03:13:46.504Z,4.32
2018-11-23T03:14:12.669Z,4.31
2018-11-23T03:14:38.850Z,4.24
2018-11-23T03:15:04.984Z,4.34
2018-11-23T03:15:31.097Z,4.17
2018-11-23T03:15:57.259Z,4.17
2018-11-23T03:16:23.370Z,4.2
2018-11-23T03:16:49.534Z,4.17
2018-11-23T03:17:15.673Z,4.19
2018-11-23T03:17:41.832Z,4.16
2018-11-23T03:18:07.964Z,4.14
2018-11-23T03:18:34.071Z,4.16
2018-11-23T03:19:00.180Z,4.16
2018-11-23T03:19:26.332Z,4.16
2018-11-23T03:19:52.496Z,4.05
2018-11-23T03:20:18.656Z,4.12
2018-11-23T03:20:44.843Z,4.12
2018-11-23T03:21:10.979Z,4.14
2018-11-23T03:21:37.082Z,4.16
2018-11-23T03:22:03.185Z,4.14
2018-11-23T03:22:29.316Z,4.1
2018-11-23T03:22:55.482Z,4.1
2018-11-23T03:23:21.643Z,4.02
2018-11-23T03:23:47.781Z,4.12
2018-11-23T03:24:13.951Z,4.08
2018-11-23T03:24:40.156Z,4.01
2018-11-23T03:25:06.326Z,4.08
2018-11-23T03:25:32.508Z,3.94
2018-11-23T03:25:58.634Z,3.99
2018-11-23T03:26:24.767Z,3.95
2018-11-23T03:26:50.928Z,4.01
2018-11-23T03:27:17.060Z,3.99
2018-11-23T03:27:43.163Z,3.94
2018-11-23T03:28:09.331Z,3.91
2018-11-23T03:28:35.489Z,4.02
2018-11-23T03:29:01.624Z,4.04
2018-11-23T03:29:27.796Z,3.99
2018-11-23T03:29:53.899Z,3.99
2018-11-23T03:30:20.065Z,3.94
2018-11-23T03:30:46.251Z,4.04
2018-11-23T03:31:12.776Z,4.05
2018-11-23T03:31:38.971Z,4.12
2018-11-23T03:32:05.187Z,4.04
2018-11-23T03:32:31.418Z,4.1
2018-11-23T03:32:57.610Z,4.06
2018-11-23T03:33:23.827Z,4.05
2018-11-23T03:33:49.940Z,4.06
2018-11-23T03:34:16.074Z,4.12
2018-11-23T03:34:42.226Z,4.13
2018-11-23T03:35:08.386Z,4.08
2018-11-23T03:35:34.550Z,4.08
2018-11-23T03:36:00.685Z,4.13
2018-11-23T03:36:26.885Z,4.13
2018-11-23T03:36:53.048Z,4.2
2018-11-23T03:37:19.270Z,4.2
2018-11-23T03:37:45.394Z,4.31
2018-11-23T03:38:11.497Z,4.3
2018-11-23T03:38:37.688Z,4.2
2018-11-23T03:39:03.828Z,4.35
2018-11-23T03:39:33.982Z,4.31
2018-11-23T03:39:56.112Z,4.48
2018-11-23T03:40:22.277Z,4.37
2018-11-23T03:40:48.416Z,4.38
2018-11-23T03:41:14.550Z,4.55
2018-11-23T03:41:40.709Z,4.48
2018-11-23T03:42:06.906Z,4.5
2018-11-23T03:42:33.031Z,4.49
2018-11-23T03:42:59.195Z,4.53
2018-11-23T03:43:25.320Z,4.53
2018-11-23T03:43:51.467Z,4.53
2018-11-23T03:44:17.632Z,4.59
2018-11-23T03:44:43.763Z,4.56
2018-11-23T03:45:09.905Z,4.55
2018-11-23T03:45:36.097Z,4.62
2018-11-23T03:46:02.294Z,4.68
2018-11-23T03:46:28.448Z,4.7
2018-11-23T03:46:54.611Z,4.66
2018-11-23T03:47:20.716Z,4.68
2018-11-23T03:47:46.880Z,4.67
2018-11-23T03:48:13.017Z,4.68
2018-11-23T03:48:39.158Z,4.74
2018-11-23T03:49:05.317Z,4.77
2018-11-23T03:49:31.422Z,4.74
2018-11-23T03:49:57.558Z,4.75
2018-11-23T03:50:23.692Z,4.78
2018-11-23T03:50:49.793Z,4.78
2018-11-23T03:51:15.954Z,4.8
2018-11-23T03:51:42.147Z,4.84
2018-11-23T03:52:08.306Z,4.78
2018-11-23T03:52:34.495Z,4.78
2018-11-23T03:53:00.633Z,4.77
2018-11-23T03:53:26.794Z,4.87
2018-11-23T03:53:52.901Z,4.8
2018-11-23T03:54:19.040Z,4.86
2018-11-23T03:54:45.207Z,4.9
2018-11-23T03:55:11.310Z,4.9
2018-11-23T03:55:37.514Z,4.9
2018-11-23T03:56:03.649Z,4.89
2018-11-23T03:56:29.808Z,4.96
2018-11-23T03:56:55.998Z,4.93
2018-11-23T03:57:22.138Z,4.92
2018-11-23T03:57:48.265Z,4.9
2018-11-23T03:58:14.417Z,5.04
2018-11-23T03:58:40.606Z,5
2018-11-23T03:59:06.741Z,5
2018-11-23T03:59:32.905Z,5
2018-11-23T03:59:59.063Z,4.92
2018-11-23T04:00:26.207Z,4.97
2018-11-23T04:00:52.364Z,4.97
2018-11-23T04:01:18.531Z,5.04
2018-11-23T04:01:44.708Z,5.02
2018-11-23T04:02:10.859Z,4.92
2018-11-23T04:02:36.989Z,5.05
2018-11-23T04:03:03.161Z,5.04
2018-11-23T04:03:29.367Z,5
2018-11-23T04:03:55.498Z,5
2018-11-23T04:04:21.688Z,4.9
2018-11-23T04:04:47.878Z,4.93
2018-11-23T04:05:14.071Z,5.08
2018-11-23T04:05:40.233Z,5.07
2018-11-23T04:06:06.340Z,5
2018-11-23T04:06:32.585Z,5.02
2018-11-23T04:06:58.716Z,5.07
2018-11-23T04:07:24.855Z,5.05
2018-11-23T04:07:51.020Z,5.02
2018-11-23T04:08:17.182Z,4.96
2018-11-23T04:08:43.321Z,5
2018-11-23T04:09:09.426Z,5.11
2018-11-23T04:09:35.617Z,5.02
2018-11-23T04:10:01.715Z,5.08
2018-11-23T04:10:27.940Z,5.08
2018-11-23T04:10:54.129Z,5.04
2018-11-23T04:11:20.289Z,4.99
2018-11-23T04:11:46.454Z,5.05
2018-11-23T04:12:12.579Z,5.07
2018-11-23T04:12:38.687Z,5.02
2018-11-23T04:13:04.882Z,5.05
2018-11-23T04:13:31.032Z,5.02
2018-11-23T04:13:57.194Z,5.05
2018-11-23T04:14:23.335Z,4.96
2018-11-23T04:14:49.489Z,5.15
2018-11-23T04:15:15.621Z,5.15
2018-11-23T04:15:41.784Z,5.12
2018-11-23T04:16:07.909Z,5.11
2018-11-23T04:16:34.108Z,5.04
2018-11-23T04:17:00.331Z,5.1
2018-11-23T04:17:26.494Z,5.1
2018-11-23T04:17:52.653Z,5.11
2018-11-23T04:18:18.789Z,5.18
2018-11-23T04:18:44.943Z,5.14
2018-11-23T04:19:11.135Z,5.15
2018-11-23T04:19:37.239Z,5.14
2018-11-23T04:20:03.373Z,5.18
2018-11-23T04:20:29.470Z,5.12
2018-11-23T04:20:55.603Z,5.14
2018-11-23T04:21:21.795Z,5.15
2018-11-23T04:21:47.969Z,5.11
2018-11-23T04:22:14.105Z,5.11
2018-11-23T04:22:40.239Z,5.11
2018-11-23T04:23:06.348Z,5.14
2018-11-23T04:23:32.448Z,5.11
2018-11-23T04:23:58.615Z,5.18
2018-11-23T04:24:24.746Z,5.14
2018-11-23T04:24:50.915Z,5.1
2018-11-23T04:25:17.115Z,5.1
2018-11-23T04:25:43.272Z,5.1
2018-11-23T04:26:09.431Z,5.18
2018-11-23T04:26:35.588Z,5.12
2018-11-23T04:27:01.694Z,5.18
2018-11-23T04:27:27.820Z,5.18
2018-11-23T04:27:53.959Z,5.23
2018-11-23T04:28:20.122Z,5.17
2018-11-23T04:28:46.253Z,5.14
2018-11-23T04:29:12.420Z,5.2
2018-11-23T04:29:38.619Z,5.21
2018-11-23T04:30:04.746Z,5.17
2018-11-23T04:30:30.915Z,5.25
2018-11-23T04:30:57.017Z,5.28
2018-11-23T04:31:23.184Z,5.18
2018-11-23T04:31:49.285Z,5.32
2018-11-23T04:32:15.394Z,5.32
2018-11-23T04:32:41.517Z,5.29
2018-11-23T04:33:07.649Z,5.26
2018-11-23T04:33:33.835Z,5.2
2018-11-23T04:34:00.924Z,5.26
2018-11-23T04:34:26.186Z,5.28
2018-11-23T04:34:52.349Z,5.3
2018-11-23T04:35:18.569Z,5.32
2018-11-23T04:35:44.701Z,5.26
2018-11-23T04:36:10.834Z,5.25
2018-11-23T04:36:36.963Z,5.28
2018-11-23T04:37:03.127Z,5.28
2018-11-23T04:37:29.313Z,5.15
2018-11-23T04:37:55.452Z,5.23
2018-11-23T04:38:21.638Z,5.17
2018-11-23T04:38:47.779Z,5.17
2018-11-23T04:39:13.947Z,5.11
2018-11-23T04:39:40.110Z,5.21
2018-11-23T04:40:06.214Z,5.14
2018-11-23T04:40:32.345Z,5.15
2018-11-23T04:40:58.450Z,5.2
2018-11-23T04:41:24.613Z,5.23
2018-11-23T04:41:50.767Z,5.1
2018-11-23T04:42:16.880Z,5.12
2018-11-23T04:42:43.016Z,5.05
2018-11-23T04:43:09.123Z,5.1
2018-11-23T04:43:35.290Z,4.97
2018-11-23T04:44:01.513Z,5.07
2018-11-23T04:44:27.667Z,5.02
2018-11-23T04:44:53.799Z,4.94
2018-11-23T04:45:19.933Z,4.9
2018-11-23T04:45:46.039Z,4.94
2018-11-23T04:46:12.171Z,4.89
2018-11-23T04:46:38.270Z,4.86
2018-11-23T04:47:04.439Z,4.9
2018-11-23T04:47:30.606Z,4.82
2018-11-23T04:47:56.715Z,4.86
2018-11-23T04:48:22.875Z,4.82
2018-11-23T04:48:49.005Z,4.74
2018-11-23T04:49:15.161Z,4.71
2018-11-23T04:49:41.328Z,4.71
2018-11-23T04:50:07.482Z,4.68
2018-11-23T04:50:33.642Z,4.63
2018-11-23T04:50:59.830Z,4.68
2018-11-23T04:51:25.965Z,4.66
2018-11-23T04:51:52.106Z,4.62
2018-11-23T04:52:18.265Z,4.53
2018-11-23T04:52:44.427Z,4.6
2018-11-23T04:53:10.557Z,4.45
2018-11-23T04:53:36.683Z,4.52
2018-11-23T04:54:02.820Z,4.41
2018-11-23T04:54:28.983Z,4.42
2018-11-23T04:54:55.136Z,4.45
2018-11-23T04:55:21.278Z,4.45
2018-11-23T04:55:47.412Z,4.53
2018-11-23T04:56:13.519Z,4.48
2018-11-23T04:56:39.648Z,4.62
2018-11-23T04:57:05.842Z,4.56
2018-11-23T04:57:31.974Z,4.58
2018-11-23T04:57:59.125Z,4.66
2018-11-23T04:58:25.322Z,4.7
2018-11-23T04:58:51.483Z,4.67
2018-11-23T04:59:17.617Z,4.68
2018-11-23T04:59:43.778Z,4.63
2018-11-23T05:00:09.954Z,4.71
2018-11-23T05:00:36.110Z,4.8
2018-11-23T05:01:02.247Z,4.82
2018-11-23T05:01:28.434Z,4.74
2018-11-23T05:01:54.566Z,4.78
2018-11-23T05:02:20.708Z,4.75
2018-11-23T05:02:46.877Z,4.82
2018-11-23T05:03:13.007Z,4.78
2018-11-23T05:03:39.174Z,4.77
2018-11-23T05:04:05.339Z,4.87
2018-11-23T05:04:31.533Z,4.86
2018-11-23T05:04:57.744Z,4.86
2018-11-23T05:05:23.876Z,4.86
2018-11-23T05:05:50.041Z,4.89
2018-11-23T05:06:16.174Z,4.99
2018-11-23T05:06:42.308Z,4.8
2018-11-23T05:07:08.508Z,4.82
2018-11-23T05:07:34.650Z,4.77
2018-11-23T05:08:00.782Z,4.67
2018-11-23T05:08:26.891Z,4.66
2018-11-23T05:08:53.028Z,4.67
2018-11-23T05:09:19.223Z,4.59
2018-11-23T05:09:45.362Z,4.56
2018-11-23T05:10:11.520Z,4.49
2018-11-23T05:10:37.715Z,4.49
2018-11-23T05:11:03.868Z,4.42
2018-11-23T05:11:29.997Z,4.5
2018-11-23T05:11:56.164Z,4.41
2018-11-23T05:12:22.324Z,4.4
2018-11-23T05:12:48.424Z,4.34
2018-11-23T05:13:14.550Z,4.37
2018-11-23T05:13:40.714Z,4.37
2018-11-23T05:14:06.880Z,4.28
2018-11-23T05:14:33.011Z,4.22
2018-11-23T05:14:59.147Z,4.22
2018-11-23T05:15:25.302Z,4.19
2018-11-23T05:15:51.440Z,4.19
2018-11-23T05:16:17.629Z,4.22
2018-11-23T05:16:43.851Z,4.13
2018-11-23T05:17:09.989Z,4.06
2018-11-23T05:17:36.147Z,4.14
2018-11-23T05:18:02.310Z,4.04
2018-11-23T05:18:28.471Z,4.08
2018-11-23T05:18:54.687Z,4.06
2018-11-23T05:19:20.849Z,4.04
2018-11-23T05:19:47.006Z,4.05
2018-11-23T05:20:13.137Z,4.02
2018-11-23T05:20:39.240Z,4.04
2018-11-23T05:21:05.402Z,3.99
2018-11-23T05:21:31.537Z,4.02
2018-11-23T05:21:57.728Z,4.04
2018-11-23T05:22:23.864Z,4.01
2018-11-23T05:22:49.997Z,4.01
2018-11-23T05:23:16.136Z,3.99
2018-11-23T05:23:42.302Z,4.01
2018-11-23T05:24:08.463Z,3.96
2018-11-23T05:24:34.597Z,4.01
2018-11-23T05:25:00.766Z,3.91
2018-11-23T05:25:26.958Z,4.02
2018-11-23T05:25:53.120Z,3.96
2018-11-23T05:26:19.291Z,4.04
2018-11-23T05:26:45.395Z,3.96
2018-11-23T05:27:11.509Z,4.01
2018-11-23T05:27:37.639Z,3.95
2018-11-23T05:28:03.746Z,3.94
2018-11-23T05:28:29.848Z,3.99
2018-11-23T05:28:55.990Z,3.95
2018-11-23T05:29:22.146Z,3.95
2018-11-23T05:29:49.058Z,3.92
2018-11-23T05:30:14.492Z,3.96
2018-11-23T05:30:40.645Z,3.94
2018-11-23T05:31:06.902Z,3.91
2018-11-23T05:31:33.046Z,3.87
2018-11-23T05:31:59.225Z,3.88
2018-11-23T05:32:25.330Z,3.92
2018-11-23T05:32:51.463Z,3.84
2018-11-23T05:33:17.645Z,3.83
2018-11-23T05:33:43.837Z,3.83
2018-11-23T05:34:09.994Z,3.77
2018-11-23T05:34:36.127Z,3.84
2018-11-23T05:35:02.263Z,3.81
2018-11-23T05:35:28.448Z,3.7
2018-11-23T05:35:54.545Z,3.77
2018-11-23T05:36:20.677Z,3.76
2018-11-23T05:36:46.836Z,3.81
2018-11-23T05:37:12.970Z,3.77
2018-11-23T05:37:39.180Z,3.78
2018-11-23T05:38:05.316Z,3.77
2018-11-23T05:38:31.468Z,3.68
2018-11-23T05:38:57.687Z,3.8
2018-11-23T05:39:23.826Z,3.69
2018-11-23T05:39:49.948Z,3.65
2018-11-23T05:40:16.090Z,3.65
2018-11-23T05:40:42.284Z,3.78
2018-11-23T05:41:08.452Z,3.7
2018-11-23T05:41:34.641Z,3.77
2018-11-23T05:42:00.772Z,3.73
2018-11-23T05:42:26.969Z,3.74
2018-11-23T05:42:53.132Z,3.7
2018-11-23T05:43:20.201Z,3.68
2018-11-23T05:43:46.312Z,3.69
2018-11-23T05:44:12.468Z,3.69
2018-11-23T05:44:38.629Z,3.78
2018-11-23T05:45:04.764Z,3.73
2018-11-23T05:45:30.865Z,3.81
2018-11-23T05:45:57.029Z,3.66
2018-11-23T05:46:23.193Z,3.66
2018-11-23T05:46:49.383Z,3.62
2018-11-23T05:47:15.515Z,3.68
2018-11-23T05:47:41.624Z,3.68
2018-11-23T05:48:07.752Z,3.66
2018-11-23T05:48:34.665Z,3.65
2018-11-23T05:49:00.777Z,3.65
2018-11-23T05:49:26.880Z,3.68
2018-11-23T05:49:53.046Z,3.65